• Join FlightAware (Why Join?)
  • Login
  • US Flag 
01:38AM EDT


 

Airport Tracker/Info


-or-


 

Live Flight TrackerFlight Track Log ✈ VNR160 ✈ 18-Apr-2013 ✈ KSGR - KRDU

Flight Track Log - Related Links

Times and Time Zones

All times are in EDT time to prevent confusion due to time zone crossing. See the VNR160 flight status page for this flight to view local times or setup timezone preferences in your user account.

Time Position Orientation Groundspeed Altitude Reporting Facility
EDT Latitude Longitude Course Direction KTS MPH feet Rate Location/Type
04:33PM 30.4460 -93.8498 62° Northeast  Level Estimated
04:34PM 30.4910 -93.7486 63° Northeast  Level Estimated
04:35PM 30.5359 -93.6472 63° Northeast  Level Estimated
04:36PM 30.5808 -93.5458 63° Northeast  Level Estimated
04:37PM 30.6256 -93.4442 63° Northeast  Level Estimated
04:38PM 30.6703 -93.3426 63° Northeast  Level Estimated
04:39PM 30.7150 -93.2409 63° Northeast  Level Estimated
04:40PM 30.7595 -93.1391 63° Northeast  Level Estimated
04:41PM 30.8040 -93.0371 63° Northeast  Level Estimated
04:42PM 30.8484 -92.9351 63° Northeast  Level Estimated
04:43PM 30.8930 -92.8324 63° Northeast  Level Estimated
04:44PM 30.9375 -92.7295 63° Northeast  Level Estimated
04:45PM 30.9820 -92.6265 63° Northeast  Level Estimated
04:46PM 31.0264 -92.5233 63° Northeast  Level Estimated
04:47PM 31.0707 -92.4201 63° Northeast  Level Estimated
04:48PM 31.1150 -92.3168 63° Northeast  Level Estimated
04:49PM 31.1591 -92.2133 63° Northeast  Level Estimated
04:50PM 31.2032 -92.1098 64° Northeast  Level Estimated
04:51PM 31.2472 -92.0062 64° Northeast  Level Estimated
04:52PM 31.2911 -91.9025 64° Northeast  Level Estimated
04:53PM 31.3349 -91.7987 64° Northeast  Level Estimated
04:54PM 31.3786 -91.6948 64° Northeast  Level Estimated
04:55PM 31.4223 -91.5908 64° Northeast  Level Estimated
04:56PM 31.4658 -91.4867 64° Northeast  Level Estimated
04:57PM 31.5093 -91.3825 64° Northeast  Level Estimated
04:58PM 31.5528 -91.2780 64° Northeast  Level Estimated
04:59PM 31.5961 -91.1735 64° Northeast  Level Estimated
05:00PM 31.6394 -91.0688 64° Northeast  Level Estimated
05:01PM 31.6826 -90.9641 64° Northeast  Level Estimated
05:02PM 31.7258 -90.8593 64° Northeast  Level Estimated
05:03PM 31.7688 -90.7543 64° Northeast  Level Estimated
05:04PM 31.8118 -90.6493 64° Northeast  Level Estimated
05:05PM 31.8546 -90.5441 64° Northeast  Level Estimated
05:06PM 31.8974 -90.4389 64° Northeast  Level Estimated
05:07PM 31.9401 -90.3336 64° Northeast  Level Estimated
05:08PM 31.9827 -90.2281 65° Northeast  Level Estimated
05:09PM 32.0252 -90.1226 65° Northeast  Level Estimated
05:10PM 32.0676 -90.0170 65° Northeast  Level Estimated
05:11PM 32.1100 -89.9113 65° Northeast  Level Estimated
05:12PM 32.1522 -89.8055 65° Northeast  Level Estimated
05:13PM 32.1944 -89.6995 65° Northeast  Level Estimated
05:14PM 32.2365 -89.5935 65° Northeast  Level Estimated
05:15PM 32.2785 -89.4874 65° Northeast  Level Estimated
05:16PM 32.3204 -89.3812 65° Northeast  Level Estimated
05:17PM 32.3622 -89.2749 65° Northeast  Level Estimated
05:18PM 32.4039 -89.1685 65° Northeast  Level Estimated
05:19PM 32.4455 -89.0621 65° Northeast  Level Estimated
05:20PM 32.4870 -88.9556 65° Northeast  Level Estimated
05:21PM 32.5284 -88.8490 65° Northeast  Level Estimated
05:22PM 32.5697 -88.7423 65° Northeast  Level Estimated
05:23PM 32.6109 -88.6355 65° Northeast  Level Estimated
05:24PM 32.6521 -88.5286 65° Northeast  Level Estimated
05:25PM 32.6931 -88.4216 65° Northeast  Level Estimated
05:26PM 32.7341 -88.3145 66° East  Level Estimated
05:27PM 32.7750 -88.2073 66° East  Level Estimated
05:28PM 32.8157 -88.1001 66° East  Level Estimated
05:29PM 32.8564 -87.9927 66° East  Level Estimated
05:30PM 32.8970 -87.8852 66° East  Level Estimated
05:31PM 32.9375 -87.7776 66° East  Level Estimated
05:32PM 32.9779 -87.6699 66° East  Level Estimated
05:33PM 33.0182 -87.5622 66° East  Level Estimated
05:34PM 33.0584 -87.4543 66° East  Level Estimated
05:35PM 33.0986 -87.3463 66° East  Level Estimated
05:36PM 33.1386 -87.2383 66° East  Level Estimated
05:37PM 33.1785 -87.1301 66° East  Level Estimated
05:38PM 33.2184 -87.0219 66° East  Level Estimated
05:39PM 33.2581 -86.9135 66° East  Level Estimated
05:40PM 33.2978 -86.8051 66° East  Level Estimated
05:41PM 33.3373 -86.6966 66° East  Level Estimated
05:42PM 33.3768 -86.5879 66° East  Level Estimated
05:43PM 33.4162 -86.4792 67° East  Level Estimated
05:44PM 33.4554 -86.3704 67° East  Level Estimated
05:45PM 33.4946 -86.2614 67° East  Level Estimated
05:46PM 33.5337 -86.1524 67° East  Level Estimated
05:47PM 33.5727 -86.0433 67° East  Level Estimated
05:48PM 33.6116 -85.9341 67° East  Level Estimated
05:49PM 33.6504 -85.8247 67° East  Level Estimated
05:50PM 33.6891 -85.7153 67° East  Level Estimated
05:51PM 33.7277 -85.6058 67° East  Level Estimated
05:52PM 33.7662 -85.4962 67° East  Level Estimated
05:53PM 33.8046 -85.3865 67° East  Level Estimated
05:54PM 33.8429 -85.2766 67° East  Level Estimated
05:55PM 33.8811 -85.1667 67° East  Level Estimated
05:56PM 33.9189 -85.0576 67° East  Level Estimated
05:57PM 33.9566 -84.9483 67° East  Level Estimated
05:58PM 33.9943 -84.8389 67° East  Level Estimated
05:59PM 34.0318 -84.7295 67° East  Level Estimated
06:00PM 34.0692 -84.6199 68° East  Level Estimated
06:01PM 34.1066 -84.5102 68° East  Level Estimated
06:02PM 34.1438 -84.4005 68° East  Level Estimated
06:03PM 34.1810 -84.2906 68° East  Level Estimated
06:04PM 34.2180 -84.1807 68° East  Level Estimated
06:05PM 34.2550 -84.0707 68° East  Level Estimated
06:06PM 34.2918 -83.9605 68° East  Level Estimated
06:07PM 34.3290 -83.8491 68° East  Level Estimated
06:08PM 34.3660 -83.7375 68° East  Level Estimated
06:09PM 34.4030 -83.6259 68° East  Level Estimated
06:10PM 34.4397 -83.5147 68° East  Level Estimated
06:11PM 34.4762 -83.4034 68° East  Level Estimated
06:12PM 34.5127 -83.2920 68° East  Level Estimated
06:13PM 34.5491 -83.1805 68° East  Level Estimated
06:14PM 34.5854 -83.0688 68° East  Level Estimated
06:15PM 34.6215 -82.9571 68° East  Level Estimated
06:16PM 34.6576 -82.8453 69° East  Level Estimated
06:17PM 34.6936 -82.7334 69° East  Level Estimated
06:18PM 34.7294 -82.6215 69° East  Level Estimated
06:19PM 34.7652 -82.5094 69° East  Level Estimated
06:20PM 34.8008 -82.3972 69° East  Level Estimated
06:21PM 34.8364 -82.2849 69° East  Level Estimated
06:22PM 34.8719 -82.1725 69° East  Level Estimated
06:23PM 34.9073 -82.0596 69° East  Level Estimated
06:24PM 34.9427 -81.9467 69° East  Level Estimated
06:25PM 34.9780 -81.8336 69° East  Level Estimated
06:26PM 35.0129 -81.7211 69° East  Level Estimated
06:27PM 35.0480 -81.6077 69° East  Level Estimated
06:28PM 35.0830 -81.4942 69° East  Level Estimated
06:29PM 35.1179 -81.3807 69° East  Level Estimated
06:30PM 35.1525 -81.2675 69° East  Level Estimated
06:31PM 35.1870 -81.1542 70° East  Level Estimated
06:32PM 35.2214 -81.0409 70° East  Level Estimated
06:33PM 35.2559 -80.9269 70° East  Level Estimated
06:34PM 35.2902 -80.8128 70° East  Level Estimated
06:35PM 35.3244 -80.6988 70° East  Level Estimated
06:36PM 35.3587 -80.5842 70° East  Level Estimated
06:37PM 35.3928 -80.4694 70° East  Level Estimated
06:37PM 34.9069 -79.9278 70° East 368 423 16,800  Level Washington Center
06:38PM 35.4268 -80.3546 70° East  Level Estimated
06:38PM 34.9894 -79.8383 42° Northeast 359 413 15,600  Level Washington Center
06:39PM 35.4608 -80.2397 70° East  Level Estimated
06:39PM 35.0544 -79.7683 41° Northeast 353 406 14,600  Level Washington Center
06:40PM 35.4946 -80.1246 70° East  Level Estimated
06:40PM 35.1303 -79.6858 42° Northeast 340 391 13,400  Level Washington Center
06:41PM 35.5283 -80.0095 70° East  Level Estimated
06:41PM 35.1889 -79.6178 43° Northeast 320 368 12,400  Level Washington Center
06:42PM 35.5619 -79.8943 70° East  Level Estimated
06:42PM 35.2706 -79.5506 34° Northeast 320 368 11,200  Level Washington Center
06:43PM 35.5958 -79.7774 70° East  Level Estimated
06:43PM 35.3431 -79.5031 28° Northeast 320 368 10,200  Level Washington Center
06:44PM 35.4283 -79.4436 30° Northeast 320 368 9,000 -600 Descending Washington Center
06:45PM 35.4947 -79.3933 32° Northeast 314 361 9,000  Level Washington Center
06:46PM 35.5558 -79.3067 49° Northeast 300 345 9,000  Level Washington Center
06:47PM 35.6022 -79.2297 53° Northeast 313 360 9,000  Level Washington Center
06:48PM 35.6592 -79.1353 53° Northeast 313 360 9,000  Level Washington Center
06:50PM 35.7222 -79.0056 58° Northeast  Level FlightAware Approximate
06:57PM 35.8667 -78.7833 North  Level FlightAware Approximate
06:58PM 35.8776 -78.7875 North  Level Estimated
06:59PM 35.8776 -78.7875 North  Level Estimated
07:00PM 35.8776 -78.7875 North  Level Estimated
07:01PM 35.8776 -78.7875 North  Level Estimated
07:02PM 35.8776 -78.7875 North  Level Estimated
07:03PM 35.8776 -78.7875 North  Level Estimated
07:04PM 35.8776 -78.7875 North  Level Estimated
07:05PM 35.8776 -78.7875 North  Level Estimated
07:06PM 35.8776 -78.7875 North  Level Estimated
07:07PM 35.8776 -78.7875 North  Level Estimated
07:08PM 35.8776 -78.7875 North  Level Estimated